Погода Кобуна неделю

Апшеронский район, Азербайджан

19 - 25 июля
  • 19июля
    Сегодня
    +23°
    +33°
    Небольшая облачность
    ВремяПогодаТемператураВлажностьДавлениеВетер, м/сВероятность осадков
    01:00Облачно с прояснениями+25°C69 %751 мм4.1 м/с2 %
    04:00Небольшая облачность+24°C76 %750 мм3.9 м/с2 %
    07:00Облачно с прояснениями+26°C77 %750 мм4.5 м/с2 %
    10:00Практически безоблачно+30°C59 %750 мм4.3 м/с2 %
    13:00Небольшая облачность+32°C42 %749 мм4.1 м/с3 %
    16:00Небольшая облачность+32°C43 %749 мм5.0 м/с2 %
    19:00Практически безоблачно+29°C65 %748 мм4.1 м/с2 %
    22:00Ясно и безоблачно+26°C82 %749 мм2.9 м/с2 %
  • 20июля
    Суббота
    +24°
    +34°
    Ясно и безоблачно
    ВремяПогодаТемператураВлажностьДавлениеВетер, м/сВероятность осадков
    01:00Ясно и безоблачно+25°C85 %748 мм3.0 м/с2 %
    04:00Ясно и безоблачно+24°C91 %747 мм1.8 м/с2 %
    07:00Ясно и безоблачно+25°C82 %748 мм1.0 м/с2 %
    10:00Ясно и безоблачно+31°C43 %747 мм1.4 м/с1 %
    13:00Ясно и безоблачно+34°C33 %747 мм3.7 м/с2 %
    16:00Ясно и безоблачно+34°C35 %746 мм3.7 м/с3 %
    19:00Ясно и безоблачно+31°C50 %746 мм3.4 м/с1 %
    22:00Облачно с прояснениями+28°C65 %747 мм0.5 м/с2 %
  • 21июля
    Воскресенье
    +22°
    +31°
    Небольшая облачность
    ВремяПогодаТемператураВлажностьДавлениеВетер, м/сВероятность осадков
    01:00Ясно и безоблачно+26°C75 %746 мм1.5 м/с2 %
    04:00Облачно с прояснениями+25°C80 %747 мм2.7 м/с9 %
    07:00Практически безоблачно+25°C88 %748 мм5.4 м/с41 %
    10:00Облачно с прояснениями+30°C53 %749 мм5.6 м/с36 %
    13:00Небольшая облачность+29°C61 %749 мм6.8 м/с23 %
    16:00Практически безоблачно+30°C56 %748 мм6.5 м/с6 %
    19:00Ясно и безоблачно+28°C65 %749 мм5.9 м/с2 %
    22:00Небольшая облачность+26°C77 %750 мм4.4 м/с2 %
  • 22июля
    Понедельник
    +23°
    +34°
    Ясно и безоблачно
    ВремяПогодаТемператураВлажностьДавлениеВетер, м/сВероятность осадков
    01:00Практически безоблачно+24°C79 %749 мм3.2 м/с2 %
    04:00Ясно и безоблачно+23°C80 %750 мм1.5 м/с2 %
    07:00Ясно и безоблачно+26°C59 %750 мм2.2 м/с2 %
    10:00Ясно и безоблачно+32°C35 %750 мм3.2 м/с2 %
    13:00Ясно и безоблачно+34°C31 %750 мм2.8 м/с2 %
    16:00Ясно и безоблачно+34°C33 %749 мм2.5 м/с2 %
    19:00Ясно и безоблачно+31°C50 %749 мм2.3 м/с2 %
    22:00Ясно и безоблачно+28°C67 %750 мм1.1 м/с2 %
  • 23июля
    Вторник
    +24°
    +33°
    Ясно и безоблачно
    ВремяПогодаТемператураВлажностьДавлениеВетер, м/сВероятность осадков
    01:00Ясно и безоблачно+26°C77 %749 мм1.3 м/с2 %
    04:00Ясно и безоблачно+25°C83 %749 мм1.6 м/с2 %
    07:00Ясно и безоблачно+27°C71 %749 мм1.4 м/с2 %
    10:00Ясно и безоблачно+31°C54 %749 мм4.4 м/с2 %
    13:00Ясно и безоблачно+33°C48 %748 мм5.6 м/с2 %
    16:00Ясно и безоблачно+32°C54 %747 мм5.7 м/с2 %
    19:00Ясно и безоблачно+30°C68 %747 мм4.5 м/с2 %
    22:00Ясно и безоблачно+27°C82 %747 мм2.8 м/с2 %
Мы используем cookies
Соглашаюсь